Time;durP1;ratioP1;P1;durP2;ratioP2;P2;SDS_P1;SDS_P2;PMS_P1;PMS_P2;Temp;Humidity;BMP_temperature;BMP_pressure;BME280_temperature;BME280_humidity;BME280_pressure;Samples;Min_cycle;Max_cycle;Signal;HPM_P1;HPM_P2
2021/08/08 00:02:13;;;;;;;4.70;1.50;;;22.20;91.00;;;;;;4975742;28;20025;-81
2021/08/08 00:04:39;;;;;;;8.23;1.80;;;22.20;91.00;;;;;;4947113;28;20038;-81
2021/08/08 00:07:04;;;;;;;5.15;1.33;;;22.20;91.00;;;;;;4932177;28;20028;-80
2021/08/08 00:09:30;;;;;;;4.05;1.40;;;22.10;91.00;;;;;;4931955;29;20028;-80
2021/08/08 00:11:56;;;;;;;4.40;1.13;;;22.20;91.00;;;;;;4934739;28;20046;-79
2021/08/08 00:14:23;;;;;;;5.88;1.70;;;22.10;91.30;;;;;;5011554;28;20372;-76
2021/08/08 00:16:48;;;;;;;4.78;1.40;;;22.10;91.20;;;;;;5011376;28;20033;-82
2021/08/08 00:19:14;;;;;;;4.60;1.70;;;22.20;91.30;;;;;;5011505;28;20022;-80
2021/08/08 00:21:40;;;;;;;6.15;1.70;;;22.10;91.50;;;;;;4976144;28;20032;-75
2021/08/08 00:24:06;;;;;;;7.53;1.63;;;22.10;92.10;;;;;;4967699;28;20377;-77
2021/08/08 00:26:33;;;;;;;8.07;1.60;;;22.10;91.90;;;;;;4932406;28;20477;-78
2021/08/08 00:28:59;;;;;;;7.93;1.85;;;22.20;92.10;;;;;;4931491;29;20020;-75
2021/08/08 00:31:25;;;;;;;6.78;1.95;;;22.10;92.20;;;;;;4932127;28;20035;-75
2021/08/08 00:33:51;;;;;;;6.90;1.73;;;22.10;92.20;;;;;;5000195;28;20419;-78
2021/08/08 00:36:17;;;;;;;6.95;1.42;;;22.10;92.30;;;;;;4931023;29;20031;-75
2021/08/08 00:38:43;;;;;;;7.45;1.63;;;22.10;92.30;;;;;;4930996;28;20030;-76
2021/08/08 00:41:09;;;;;;;7.25;2.35;;;22.10;92.30;;;;;;4962316;28;20404;-76
2021/08/08 00:43:34;;;;;;;6.18;1.50;;;22.10;92.40;;;;;;5026067;28;20026;-75
2021/08/08 00:46:00;;;;;;;4.70;1.40;;;22.10;92.40;;;;;;5010711;28;20053;-77
2021/08/08 00:48:26;;;;;;;6.03;1.50;;;22.10;92.40;;;;;;5011190;28;20041;-77
2021/08/08 00:50:52;;;;;;;6.57;1.35;;;22.10;92.50;;;;;;4988895;28;20069;-75
2021/08/08 00:53:18;;;;;;;6.35;1.80;;;22.10;92.40;;;;;;4978002;28;20016;-75
2021/08/08 00:55:43;;;;;;;5.80;1.20;;;22.10;92.40;;;;;;4930840;28;20028;-77
2021/08/08 00:58:09;;;;;;;5.07;1.55;;;22.10;92.40;;;;;;4930540;29;20101;-75
2021/08/08 01:00:37;;;;;;;6.13;1.85;;;22.10;92.40;;;;;;4940482;28;20480;-78
2021/08/08 01:03:07;;;;;;;5.45;1.52;;;22.10;92.30;;;;;;4968677;28;20027;-76
2021/08/08 01:05:41;;;;;;;7.43;1.70;;;22.00;92.30;;;;;;4911360;29;20127;-75
2021/08/08 01:08:10;;;;;;;7.80;1.58;;;22.10;92.60;;;;;;4927294;28;20016;-76
2021/08/08 01:10:37;;;;;;;6.35;1.30;;;22.10;92.20;;;;;;4962224;28;20057;-79
2021/08/08 01:13:03;;;;;;;4.43;1.40;;;22.00;92.20;;;;;;5011012;28;20109;-79
2021/08/08 01:15:29;;;;;;;4.90;1.67;;;22.00;92.10;;;;;;5003964;28;20030;-79
2021/08/08 01:17:57;;;;;;;4.63;1.40;;;22.00;92.20;;;;;;4933853;29;20387;-77
2021/08/08 01:20:25;;;;;;;5.95;1.58;;;22.00;92.20;;;;;;4934430;28;20039;-79
2021/08/08 01:22:57;;;;;;;6.85;2.17;;;22.00;92.40;;;;;;4982578;28;20556;-76
2021/08/08 01:25:23;;;;;;;5.85;1.50;;;22.00;92.10;;;;;;4933780;29;20035;-76
2021/08/08 01:27:51;;;;;;;5.63;2.10;;;22.00;92.10;;;;;;4931886;29;20032;-75
2021/08/08 01:30:17;;;;;;;6.43;1.50;;;22.00;92.10;;;;;;4974382;28;20058;-79
2021/08/08 01:32:43;;;;;;;8.30;1.88;;;22.00;92.00;;;;;;4984238;28;20070;-80
2021/08/08 01:35:09;;;;;;;8.13;2.20;;;22.00;92.10;;;;;;4933899;28;20024;-76
2021/08/08 01:37:35;;;;;;;5.68;1.20;;;22.00;92.00;;;;;;4969493;28;20026;-76
2021/08/08 01:40:09;;;;;;;6.57;1.60;;;21.90;92.00;;;;;;5012364;28;20413;-74
2021/08/08 01:42:37;;;;;;;4.28;1.80;;;22.00;91.90;;;;;;5013170;28;20087;-75
2021/08/08 01:45:04;;;;;;;4.82;1.50;;;21.90;91.90;;;;;;5012469;28;20049;-75
2021/08/08 01:47:36;;;;;;;7.53;1.73;;;21.90;91.90;;;;;;4948528;28;20531;-75
2021/08/08 01:50:03;;;;;;;7.47;1.67;;;21.90;91.90;;;;;;4933764;28;20478;-78
2021/08/08 01:52:28;;;;;;;7.88;1.67;;;22.00;91.90;;;;;;4972553;28;20022;-76
2021/08/08 01:54:55;;;;;;;6.57;1.85;;;21.90;91.80;;;;;;4959288;28;20376;-76
2021/08/08 01:57:21;;;;;;;6.80;1.92;;;21.90;91.80;;;;;;4933683;29;20400;-76
2021/08/08 01:59:46;;;;;;;5.80;1.90;;;21.90;91.80;;;;;;4933237;29;20391;-77
2021/08/08 02:02:14;;;;;;;5.03;1.30;;;21.90;91.70;;;;;;4996369;28;20018;-74
2021/08/08 02:04:41;;;;;;;6.68;1.98;;;21.90;91.70;;;;;;4959269;28;20035;-76
2021/08/08 02:07:11;;;;;;;6.85;1.92;;;21.90;91.70;;;;;;4938522;28;20044;-75
2021/08/08 02:09:37;;;;;;;4.72;1.48;;;21.90;91.70;;;;;;4974286;28;20034;-77
2021/08/08 02:12:03;;;;;;;6.22;1.50;;;21.90;91.60;;;;;;4964708;28;20034;-77
2021/08/08 02:14:29;;;;;;;5.32;1.55;;;21.90;91.60;;;;;;4933597;28;20387;-76
2021/08/08 02:16:54;;;;;;;5.32;1.42;;;21.90;91.60;;;;;;4949739;28;20115;-75
2021/08/08 02:19:20;;;;;;;5.25;1.63;;;21.90;91.60;;;;;;4933327;29;20479;-77
2021/08/08 02:21:46;;;;;;;5.68;1.40;;;21.80;91.90;;;;;;4947307;28;20048;-80
2021/08/08 02:24:12;;;;;;;8.38;1.80;;;21.90;91.50;;;;;;4968650;28;20024;-79
2021/08/08 02:26:38;;;;;;;5.13;1.63;;;21.80;91.50;;;;;;4932192;29;20181;-78
2021/08/08 02:29:04;;;;;;;6.45;1.70;;;21.80;91.50;;;;;;4935939;28;20051;-78
2021/08/08 02:31:41;;;;;;;3.88;1.45;;;21.80;91.50;;;;;;5013748;28;20474;-75
2021/08/08 02:34:08;;;;;;;7.47;2.30;;;21.80;91.70;;;;;;4946314;28;20028;-81
2021/08/08 02:36:34;;;;;;;5.57;1.40;;;21.80;91.40;;;;;;4933028;28;20483;-78
2021/08/08 02:38:59;;;;;;;5.55;1.50;;;21.80;91.40;;;;;;4933662;28;20030;-76
2021/08/08 02:41:25;;;;;;;7.72;1.95;;;21.80;91.40;;;;;;4931455;29;20032;-77
2021/08/08 02:43:53;;;;;;;9.32;1.73;;;21.80;91.40;;;;;;4932714;29;20023;-77
2021/08/08 02:46:18;;;;;;;5.35;1.55;;;21.80;91.30;;;;;;4939248;28;20093;-76
2021/08/08 02:48:44;;;;;;;7.05;1.20;;;21.80;91.30;;;;;;4932361;28;20499;-79
2021/08/08 02:51:09;;;;;;;5.38;1.50;;;21.80;91.30;;;;;;4957668;28;20101;-77
2021/08/08 02:53:35;;;;;;;6.35;1.65;;;21.80;91.30;;;;;;4937670;28;20404;-78
2021/08/08 02:56:00;;;;;;;6.82;1.70;;;21.80;91.30;;;;;;4913536;29;20040;-75
2021/08/08 02:58:26;;;;;;;4.05;1.40;;;21.80;91.30;;;;;;5006009;28;20462;-77
2021/08/08 03:00:52;;;;;;;5.07;1.38;;;21.70;91.20;;;;;;5010814;28;20411;-78
2021/08/08 03:03:17;;;;;;;7.82;1.80;;;21.80;91.20;;;;;;5005012;28;20049;-75
2021/08/08 03:05:43;;;;;;;9.13;1.70;;;21.80;91.20;;;;;;4932087;29;20114;-78
2021/08/08 03:08:08;;;;;;;5.95;1.38;;;21.70;91.20;;;;;;4964767;28;20095;-76
2021/08/08 03:10:35;;;;;;;4.00;1.30;;;21.70;91.20;;;;;;4933750;28;20040;-77
2021/08/08 03:13:01;;;;;;;5.32;1.65;;;21.70;91.10;;;;;;4931918;28;20376;-77
2021/08/08 03:15:26;;;;;;;7.80;1.80;;;21.70;91.10;;;;;;4939208;28;20035;-76
2021/08/08 03:17:52;;;;;;;7.38;1.70;;;21.70;91.10;;;;;;4941805;28;20114;-79
2021/08/08 03:20:20;;;;;;;7.32;2.05;;;21.70;91.10;;;;;;4932816;28;20032;-80
2021/08/08 03:22:46;;;;;;;4.78;1.50;;;21.70;91.10;;;;;;4978465;28;20105;-78
2021/08/08 03:25:11;;;;;;;6.63;1.58;;;21.60;91.00;;;;;;4935467;28;20388;-77
2021/08/08 03:27:37;;;;;;;4.78;1.42;;;21.70;91.00;;;;;;4932085;29;20488;-80
2021/08/08 03:30:06;;;;;;;8.05;1.52;;;21.60;91.00;;;;;;4932008;29;20035;-76
2021/08/08 03:32:32;;;;;;;5.30;1.38;;;21.60;91.30;;;;;;4920225;28;20107;-77
2021/08/08 03:34:57;;;;;;;8.75;2.17;;;21.60;91.00;;;;;;5005374;28;20506;-76
2021/08/08 03:37:23;;;;;;;5.32;1.52;;;21.60;90.90;;;;;;4991870;28;20032;-80
2021/08/08 03:39:49;;;;;;;6.72;1.80;;;21.60;90.90;;;;;;5011224;28;20025;-80
2021/08/08 03:42:14;;;;;;;7.50;1.45;;;21.60;90.90;;;;;;5012212;28;20109;-75
2021/08/08 03:44:40;;;;;;;5.53;1.40;;;21.60;90.90;;;;;;5011757;28;20030;-79
2021/08/08 03:47:05;;;;;;;5.50;1.58;;;21.60;90.80;;;;;;4963038;28;20054;-79
2021/08/08 03:49:31;;;;;;;3.85;1.20;;;21.60;90.80;;;;;;4931600;29;20040;-78
2021/08/08 03:51:57;;;;;;;5.60;1.90;;;21.60;90.80;;;;;;4952449;28;20505;-76
2021/08/08 03:54:22;;;;;;;5.13;1.77;;;21.60;90.80;;;;;;5011767;28;20025;-77
2021/08/08 03:56:48;;;;;;;4.47;1.30;;;21.60;90.80;;;;;;5010943;28;20051;-75
2021/08/08 03:59:13;;;;;;;5.65;1.50;;;21.60;90.80;;;;;;5010914;28;20034;-75
2021/08/08 04:01:39;;;;;;;5.47;1.45;;;21.60;90.70;;;;;;5011730;28;20501;-76
2021/08/08 04:04:05;;;;;;;5.22;1.45;;;21.60;90.70;;;;;;4991696;28;20024;-76
2021/08/08 04:06:30;;;;;;;4.93;1.70;;;21.50;90.70;;;;;;4999428;28;20559;-74
2021/08/08 04:08:56;;;;;;;6.32;1.60;;;21.50;90.60;;;;;;4976791;28;20065;-80
2021/08/08 04:11:22;;;;;;;6.10;1.33;;;21.50;90.60;;;;;;5010808;28;20592;-76
2021/08/08 04:13:47;;;;;;;12.23;2.60;;;21.60;90.60;;;;;;5011411;28;20029;-80
2021/08/08 04:16:13;;;;;;;7.47;1.65;;;21.50;90.60;;;;;;4998234;28;20032;-76
2021/08/08 04:18:39;;;;;;;7.57;1.70;;;21.50;90.60;;;;;;4931335;29;20028;-75
2021/08/08 04:21:05;;;;;;;4.65;1.00;;;21.50;90.50;;;;;;4936681;28;20033;-76
2021/08/08 04:23:30;;;;;;;5.43;1.92;;;21.50;90.50;;;;;;4975089;28;20024;-78
2021/08/08 04:25:56;;;;;;;3.38;1.42;;;21.50;90.50;;;;;;4930461;29;20059;-82
2021/08/08 04:28:21;;;;;;;4.63;1.67;;;21.50;90.50;;;;;;4930851;28;20039;-76
2021/08/08 04:30:47;;;;;;;5.30;1.77;;;21.50;90.50;;;;;;4997357;28;20088;-81
2021/08/08 04:33:13;;;;;;;6.65;1.65;;;21.50;90.50;;;;;;5009856;28;20105;-77
2021/08/08 04:35:39;;;;;;;5.57;2.05;;;21.50;90.40;;;;;;5009577;28;20076;-76
2021/08/08 04:38:05;;;;;;;5.03;1.65;;;21.50;90.40;;;;;;4975058;28;20118;-76
2021/08/08 04:40:31;;;;;;;4.95;1.98;;;21.50;90.40;;;;;;4931116;29;20523;-75
2021/08/08 04:42:58;;;;;;;5.65;1.35;;;21.40;90.30;;;;;;4931487;29;20035;-76
2021/08/08 04:45:24;;;;;;;6.97;1.45;;;21.40;90.40;;;;;;4977669;28;20022;-76
2021/08/08 04:47:50;;;;;;;6.30;1.77;;;21.40;90.30;;;;;;4944721;28;20514;-76
2021/08/08 04:50:16;;;;;;;6.45;1.60;;;21.40;90.30;;;;;;4933835;28;20036;-74
2021/08/08 04:52:42;;;;;;;5.57;1.52;;;21.40;90.30;;;;;;4943817;28;20039;-79
2021/08/08 04:55:09;;;;;;;5.88;1.70;;;21.40;90.30;;;;;;4974667;28;20507;-76
2021/08/08 04:57:34;;;;;;;7.25;1.38;;;21.40;90.30;;;;;;4933849;29;20020;-76
2021/08/08 05:00:00;;;;;;;6.25;1.65;;;21.40;90.20;;;;;;4936476;28;20043;-78
2021/08/08 05:02:26;;;;;;;11.18;2.10;;;21.40;90.20;;;;;;5014543;28;20033;-75
2021/08/08 05:04:51;;;;;;;6.47;1.70;;;21.40;90.20;;;;;;4995587;28;20036;-77
2021/08/08 05:07:17;;;;;;;6.22;1.70;;;21.40;90.20;;;;;;4935043;28;20414;-77
2021/08/08 05:09:43;;;;;;;5.53;1.50;;;21.30;90.20;;;;;;5009663;28;20478;-78
2021/08/08 05:12:10;;;;;;;6.35;1.30;;;21.40;90.20;;;;;;5015015;28;20075;-76
2021/08/08 05:14:37;;;;;;;4.63;1.50;;;21.40;90.20;;;;;;5014611;28;20022;-75
2021/08/08 05:17:03;;;;;;;5.88;1.38;;;21.40;90.10;;;;;;4990849;28;20037;-75
2021/08/08 05:19:28;;;;;;;9.05;2.20;;;21.30;90.10;;;;;;5014220;28;20030;-75
2021/08/08 05:21:54;;;;;;;8.95;1.98;;;21.30;90.10;;;;;;4957899;28;20059;-75
2021/08/08 05:24:20;;;;;;;7.50;1.63;;;21.30;90.10;;;;;;4984019;28;20513;-76
2021/08/08 05:26:46;;;;;;;6.53;2.00;;;21.30;90.00;;;;;;4932505;28;20040;-76
2021/08/08 05:29:13;;;;;;;6.20;1.42;;;21.30;90.00;;;;;;4933475;29;20015;-76
2021/08/08 05:31:40;;;;;;;5.10;1.67;;;21.30;90.00;;;;;;4970747;28;20114;-75
2021/08/08 05:34:06;;;;;;;6.28;1.50;;;21.30;90.00;;;;;;5007841;28;20057;-76
2021/08/08 05:36:32;;;;;;;6.15;1.67;;;21.30;90.10;;;;;;4961500;28;20085;-76
2021/08/08 05:38:58;;;;;;;8.07;1.85;;;21.30;90.10;;;;;;4983197;28;20105;-77
2021/08/08 05:41:24;;;;;;;7.43;1.73;;;21.30;90.10;;;;;;5014446;28;20493;-76
2021/08/08 05:43:49;;;;;;;5.63;1.70;;;21.30;90.20;;;;;;4993729;28;20020;-76
2021/08/08 05:46:15;;;;;;;4.85;1.63;;;21.30;90.10;;;;;;4947364;28;20036;-76
2021/08/08 05:48:41;;;;;;;7.13;1.40;;;21.30;90.10;;;;;;5013847;28;20080;-76
2021/08/08 05:51:06;;;;;;;7.32;1.50;;;21.30;90.10;;;;;;5014272;28;20065;-76
2021/08/08 05:53:32;;;;;;;6.00;1.48;;;21.30;90.10;;;;;;4976233;28;20038;-76
2021/08/08 05:55:58;;;;;;;6.97;1.85;;;21.30;90.20;;;;;;4917691;29;20432;-75
2021/08/08 05:58:23;;;;;;;6.90;1.88;;;21.30;90.20;;;;;;4974395;28;20095;-76
2021/08/08 06:00:49;;;;;;;8.93;1.95;;;21.30;90.10;;;;;;5011872;28;20421;-78
2021/08/08 06:03:14;;;;;;;4.40;1.50;;;21.30;90.20;;;;;;5012222;28;20034;-74
2021/08/08 06:05:43;;;;;;;8.13;1.77;;;21.30;90.10;;;;;;4968755;28;20462;-75
2021/08/08 06:08:08;;;;;;;6.80;1.73;;;21.30;90.10;;;;;;4939023;28;20032;-74
2021/08/08 06:10:34;;;;;;;4.53;1.50;;;21.30;90.10;;;;;;4933189;28;20031;-78
2021/08/08 06:13:00;;;;;;;7.30;1.52;;;21.30;90.10;;;;;;4933733;29;20119;-75
2021/08/08 06:15:26;;;;;;;5.10;1.70;;;21.40;90.10;;;;;;4933954;28;20103;-76
2021/08/08 06:17:51;;;;;;;5.03;1.65;;;21.30;90.10;;;;;;4938207;28;20499;-74
2021/08/08 06:20:17;;;;;;;4.72;1.67;;;21.30;90.00;;;;;;4937150;28;20024;-77
2021/08/08 06:22:43;;;;;;;8.45;1.95;;;21.30;90.00;;;;;;5001830;28;20440;-77
2021/08/08 06:25:09;;;;;;;4.82;1.60;;;21.30;90.00;;;;;;4931760;29;20404;-75
2021/08/08 06:27:34;;;;;;;5.88;2.00;;;21.40;90.00;;;;;;4923943;29;20040;-75
2021/08/08 06:30:00;;;;;;;7.22;2.33;;;21.30;90.00;;;;;;4932743;29;20023;-75
2021/08/08 06:32:26;;;;;;;6.07;2.03;;;21.40;90.00;;;;;;4932501;28;20116;-76
2021/08/08 06:34:51;;;;;;;9.27;1.42;;;21.40;90.00;;;;;;4963099;28;20383;-74
2021/08/08 06:37:17;;;;;;;7.85;2.13;;;21.40;90.00;;;;;;5013357;28;20026;-74
2021/08/08 06:39:43;;;;;;;7.50;1.70;;;21.40;90.00;;;;;;4934005;28;20052;-74
2021/08/08 06:42:08;;;;;;;4.63;1.50;;;21.40;89.90;;;;;;4932323;29;20089;-76
2021/08/08 06:44:34;;;;;;;5.75;1.50;;;21.40;89.90;;;;;;4931497;29;20094;-73
2021/08/08 06:47:00;;;;;;;6.32;1.63;;;21.40;90.00;;;;;;4997067;28;20042;-74
2021/08/08 06:49:25;;;;;;;7.30;2.38;;;21.40;89.90;;;;;;4924693;28;20063;-74
2021/08/08 06:51:51;;;;;;;5.10;1.48;;;21.40;89.90;;;;;;4932526;29;20543;-75
2021/08/08 06:54:17;;;;;;;7.32;1.80;;;21.40;89.90;;;;;;4932162;29;20499;-75
2021/08/08 06:56:42;;;;;;;7.47;1.92;;;21.40;89.80;;;;;;4932327;28;20181;-76
2021/08/08 06:59:08;;;;;;;6.65;1.70;;;21.40;89.90;;;;;;4932325;28;20085;-77
2021/08/08 07:01:33;;;;;;;8.32;1.92;;;21.40;89.90;;;;;;4931849;29;20039;-77
2021/08/08 07:03:59;;;;;;;6.28;1.63;;;21.40;89.90;;;;;;4917762;29;20507;-75
2021/08/08 07:06:25;;;;;;;6.15;2.05;;;21.40;89.90;;;;;;4913482;29;20520;-77
2021/08/08 07:08:50;;;;;;;10.02;2.35;;;21.40;90.00;;;;;;4935368;28;20591;-78
2021/08/08 07:11:16;;;;;;;6.32;1.48;;;21.40;90.00;;;;;;4931604;29;20386;-81
2021/08/08 07:13:42;;;;;;;7.38;2.25;;;21.40;90.00;;;;;;4964338;28;20037;-78
2021/08/08 07:16:08;;;;;;;7.78;1.83;;;21.40;89.80;;;;;;4987751;28;20034;-75
2021/08/08 07:18:34;;;;;;;6.53;2.30;;;21.40;89.80;;;;;;4932007;28;20020;-78
2021/08/08 07:21:00;;;;;;;8.57;2.25;;;21.40;89.90;;;;;;4932653;29;20110;-77
2021/08/08 07:23:25;;;;;;;10.00;1.95;;;21.50;90.00;;;;;;4932348;29;20036;-76
2021/08/08 07:25:51;;;;;;;7.60;2.05;;;21.50;90.10;;;;;;4932530;29;20050;-76
2021/08/08 07:28:16;;;;;;;10.90;2.35;;;21.50;90.00;;;;;;4932323;28;20040;-75
2021/08/08 07:30:42;;;;;;;9.93;1.88;;;21.40;90.00;;;;;;4932025;29;20541;-77
2021/08/08 07:33:08;;;;;;;11.02;2.38;;;21.50;89.60;;;;;;4927642;28;20032;-75
2021/08/08 07:35:36;;;;;;;7.30;1.48;;;21.50;89.80;;;;;;4931959;29;20028;-77
2021/08/08 07:38:03;;;;;;;8.75;1.95;;;21.50;90.00;;;;;;4932111;29;20036;-74
2021/08/08 07:40:28;;;;;;;12.63;2.33;;;21.50;89.80;;;;;;4930916;28;20451;-74
2021/08/08 07:42:54;;;;;;;9.02;2.10;;;21.50;89.30;;;;;;4962125;28;20132;-75
2021/08/08 07:45:20;;;;;;;10.23;3.10;;;21.50;89.60;;;;;;4949098;28;20028;-75
2021/08/08 07:47:46;;;;;;;11.95;3.17;;;21.50;89.00;;;;;;4929495;28;20043;-75
2021/08/08 07:50:12;;;;;;;15.00;4.82;;;21.50;88.80;;;;;;4916477;28;20063;-76
2021/08/08 07:52:37;;;;;;;15.88;6.95;;;21.60;89.10;;;;;;4931488;29;20024;-75
2021/08/08 07:55:05;;;;;;;17.60;6.95;;;21.60;88.90;;;;;;4931954;29;20038;-77
2021/08/08 07:57:30;;;;;;;19.70;6.35;;;21.60;89.00;;;;;;4932091;29;20376;-78
2021/08/08 07:59:56;;;;;;;16.25;6.10;;;21.60;89.00;;;;;;4931313;29;20066;-77
2021/08/08 08:02:21;;;;;;;16.17;5.38;;;21.70;89.10;;;;;;4931580;29;20484;-77
2021/08/08 08:04:48;;;;;;;15.90;4.97;;;21.70;89.00;;;;;;4931271;29;20036;-79
2021/08/08 08:07:13;;;;;;;12.25;4.03;;;21.70;88.70;;;;;;4926406;28;20044;-82
2021/08/08 08:09:39;;;;;;;13.57;4.20;;;21.70;88.60;;;;;;4931066;29;20476;-79
2021/08/08 08:12:05;;;;;;;11.68;3.90;;;21.70;91.00;;;;;;4931591;28;20042;-79
2021/08/08 08:14:30;;;;;;;14.32;3.90;;;22.80;88.90;;;;;;4931556;29;20479;-79
2021/08/08 08:16:56;;;;;;;13.35;3.78;;;21.70;88.30;;;;;;4930354;28;20067;-78
2021/08/08 08:19:22;;;;;;;15.15;3.35;;;21.70;88.00;;;;;;4928156;29;20028;-79
2021/08/08 08:21:48;;;;;;;16.75;3.42;;;21.70;88.20;;;;;;4930219;28;20472;-77
2021/08/08 08:24:14;;;;;;;19.48;4.20;;;21.70;88.10;;;;;;4931009;29;20020;-78
2021/08/08 08:26:40;;;;;;;13.32;3.70;;;21.70;87.90;;;;;;4930871;28;20122;-78
2021/08/08 08:29:06;;;;;;;20.50;7.55;;;21.70;87.80;;;;;;4931212;29;20047;-78
2021/08/08 08:31:35;;;;;;;25.83;8.68;;;21.70;87.50;;;;;;4930958;29;20046;-78
2021/08/08 08:34:01;;;;;;;21.30;6.78;;;21.70;87.40;;;;;;4931382;28;20028;-79
2021/08/08 08:36:27;;;;;;;18.10;6.85;;;21.70;87.50;;;;;;4929520;29;20522;-79
2021/08/08 08:38:53;;;;;;;17.80;5.45;;;21.70;87.50;;;;;;4923563;28;20032;-79
2021/08/08 08:41:26;;;;;;;18.42;5.57;;;21.80;86.40;;;;;;4920354;28;20036;-82
2021/08/08 08:43:53;;;;;;;24.23;5.63;;;21.80;87.30;;;;;;4926321;29;20118;-80
2021/08/08 08:46:19;;;;;;;18.05;4.70;;;21.80;86.50;;;;;;4930023;28;20097;-81
2021/08/08 08:48:45;;;;;;;19.83;4.78;;;21.70;86.40;;;;;;4962060;28;20025;-80
2021/08/08 08:51:15;;;;;;;19.75;3.95;;;21.70;86.70;;;;;;4945358;28;20125;-82
2021/08/08 08:53:42;;;;;;;11.23;3.53;;;21.70;86.50;;;;;;4963987;28;20514;-80
2021/08/08 08:56:09;;;;;;;16.15;3.63;;;21.70;86.40;;;;;;4930364;29;20111;-82
2021/08/08 08:58:35;;;;;;;13.25;3.95;;;21.70;86.30;;;;;;4929529;28;20019;-82
2021/08/08 09:01:01;;;;;;;13.98;3.83;;;21.70;86.20;;;;;;4925469;29;20206;-79
2021/08/08 09:03:27;;;;;;;14.68;4.05;;;21.70;86.60;;;;;;4930545;28;20103;-81
2021/08/08 09:05:52;;;;;;;11.35;3.10;;;21.70;86.70;;;;;;4929953;29;20059;-77
2021/08/08 09:08:18;;;;;;;10.20;2.55;;;21.80;86.90;;;;;;4931393;28;20116;-80
2021/08/08 09:10:44;;;;;;;7.95;2.70;;;21.80;86.70;;;;;;4937559;28;20031;-84
2021/08/08 09:13:11;;;;;;;8.73;2.70;;;21.80;86.70;;;;;;4928251;28;20036;-84
2021/08/08 09:15:42;;;;;;;8.05;2.85;;;21.80;86.70;;;;;;4928636;28;20059;-79
2021/08/08 09:18:14;;;;;;;9.00;3.22;;;21.80;86.70;;;;;;4927606;28;20076;-83
2021/08/08 09:20:41;;;;;;;8.88;2.13;;;21.80;86.70;;;;;;4927878;29;20012;-86
2021/08/08 09:23:07;;;;;;;10.05;2.92;;;21.80;86.50;;;;;;4925710;28;20083;-87
2021/08/08 09:25:33;;;;;;;6.63;2.53;;;21.80;86.30;;;;;;4928734;28;21566;-78
2021/08/08 09:28:10;;;;;;;12.85;2.80;;;21.90;86.20;;;;;;4928425;29;20245;-77
2021/08/08 09:30:38;;;;;;;10.05;2.55;;;21.90;86.70;;;;;;4929430;29;20047;-77
2021/08/08 09:33:07;;;;;;;7.13;2.53;;;21.90;87.90;;;;;;4945138;28;20026;-79
2021/08/08 09:35:37;;;;;;;7.63;2.40;;;21.90;87.30;;;;;;4932997;28;20028;-81
2021/08/08 09:38:07;;;;;;;8.55;2.95;;;21.90;87.00;;;;;;4932954;29;20030;-78
2021/08/08 09:40:36;;;;;;;9.70;2.28;;;21.90;86.70;;;;;;4932847;28;20042;-81
2021/08/08 09:43:04;;;;;;;6.20;1.73;;;21.90;86.50;;;;;;4933316;28;20024;-81
2021/08/08 09:45:35;;;;;;;7.10;2.22;;;21.90;86.50;;;;;;4933133;28;20023;-80
2021/08/08 09:48:01;;;;;;;9.57;2.15;;;21.90;86.50;;;;;;4932949;28;20034;-78
2021/08/08 09:50:29;;;;;;;9.70;2.35;;;22.00;86.50;;;;;;4933229;29;20028;-80
2021/08/08 09:53:01;;;;;;;7.38;2.10;;;22.00;86.50;;;;;;4933016;29;20061;-81
2021/08/08 09:55:31;;;;;;;8.95;2.17;;;22.00;86.30;;;;;;4975285;28;20083;-80
2021/08/08 09:57:58;;;;;;;6.15;1.77;;;22.00;86.20;;;;;;4955872;28;20046;-79
2021/08/08 10:00:31;;;;;;;6.75;2.20;;;22.10;86.60;;;;;;4932687;29;20097;-77
2021/08/08 10:02:58;;;;;;;8.15;2.03;;;22.00;86.80;;;;;;4933050;29;20023;-79
2021/08/08 10:05:25;;;;;;;7.32;2.47;;;22.10;86.80;;;;;;4932601;28;20035;-76
2021/08/08 10:07:53;;;;;;;10.07;1.83;;;22.10;86.60;;;;;;4961684;28;20162;-78
2021/08/08 10:10:20;;;;;;;6.50;2.28;;;22.10;86.80;;;;;;4933634;29;20411;-79
2021/08/08 10:12:57;;;;;;;5.70;1.77;;;22.10;87.10;;;;;;4932418;28;20035;-79
2021/08/08 10:15:23;;;;;;;6.78;1.73;;;22.10;87.00;;;;;;4932632;29;20028;-76
2021/08/08 10:17:50;;;;;;;6.03;1.95;;;22.20;87.00;;;;;;4932559;28;20039;-77
2021/08/08 10:20:16;;;;;;;9.68;2.17;;;22.10;87.70;;;;;;4932384;28;20019;-78
2021/08/08 10:22:44;;;;;;;6.50;1.80;;;22.20;87.10;;;;;;4947387;28;20540;-79
2021/08/08 10:25:10;;;;;;;5.25;1.58;;;22.20;87.00;;;;;;4951593;28;20376;-78
2021/08/08 10:27:36;;;;;;;8.80;1.73;;;22.20;87.00;;;;;;4949828;29;20541;-78
2021/08/08 10:30:04;;;;;;;6.60;1.92;;;22.20;86.80;;;;;;4935907;28;20438;-79
2021/08/08 10:32:30;;;;;;;8.05;1.92;;;22.20;86.70;;;;;;4932800;29;20032;-78
2021/08/08 10:34:56;;;;;;;5.47;1.58;;;22.30;87.00;;;;;;4932579;28;20032;-78
2021/08/08 10:37:25;;;;;;;6.45;1.95;;;22.30;86.70;;;;;;4932145;29;20023;-79
2021/08/08 10:39:51;;;;;;;6.53;1.83;;;22.20;86.60;;;;;;4930445;28;20794;-76
2021/08/08 10:42:18;;;;;;;8.52;2.22;;;22.30;86.50;;;;;;4932044;29;20549;-76
2021/08/08 10:45:04;;;;;;;7.10;1.83;;;22.30;86.20;;;;;;4931858;28;20034;-79
2021/08/08 10:47:32;;;;;;;6.30;1.70;;;22.30;86.40;;;;;;4932054;29;20431;-77
2021/08/08 10:50:15;;;;;;;5.15;1.55;;;22.30;86.60;;;;;;4971286;28;20483;-75
2021/08/08 10:52:43;;;;;;;5.18;2.03;;;22.30;86.70;;;;;;4932156;29;20042;-76
2021/08/08 10:55:22;;;;;;;4.97;1.77;;;22.30;86.50;;;;;;4932286;29;20026;-76
2021/08/08 10:57:48;;;;;;;7.28;2.20;;;22.30;86.50;;;;;;4931894;29;20028;-79
2021/08/08 11:00:15;;;;;;;3.83;1.52;;;22.30;86.50;;;;;;4931882;28;20024;-77
2021/08/08 11:02:46;;;;;;;5.40;1.70;;;22.30;86.40;;;;;;4931780;29;20036;-76
2021/08/08 11:05:16;;;;;;;6.97;2.10;;;22.40;86.40;;;;;;4931988;29;20027;-76
2021/08/08 11:07:45;;;;;;;6.65;1.52;;;22.40;86.50;;;;;;4949865;28;20099;-76
2021/08/08 11:10:12;;;;;;;6.07;1.70;;;22.40;86.20;;;;;;4930527;29;20376;-80
2021/08/08 11:12:42;;;;;;;5.38;1.52;;;22.40;86.20;;;;;;4931475;29;20074;-77
2021/08/08 11:15:09;;;;;;;8.73;1.85;;;22.40;85.80;;;;;;4931948;29;20086;-76
2021/08/08 11:17:36;;;;;;;6.93;2.35;;;22.50;86.30;;;;;;4931323;28;20020;-78
2021/08/08 11:20:02;;;;;;;8.50;2.42;;;22.50;86.20;;;;;;4931586;29;20407;-75
2021/08/08 11:22:28;;;;;;;6.80;1.80;;;22.40;85.30;;;;;;4940584;28;20067;-77
2021/08/08 11:25:07;;;;;;;6.22;2.08;;;22.40;85.60;;;;;;4931347;29;20055;-78
2021/08/08 11:27:39;;;;;;;7.15;1.88;;;22.40;85.90;;;;;;4931058;29;20084;-75
2021/08/08 11:30:07;;;;;;;5.55;1.77;;;22.40;85.90;;;;;;4944198;28;20020;-79
2021/08/08 11:32:34;;;;;;;6.30;2.22;;;22.40;86.00;;;;;;4931000;28;20040;-76
2021/08/08 11:34:59;;;;;;;7.25;1.60;;;22.50;86.10;;;;;;4939979;28;20403;-76
2021/08/08 11:37:33;;;;;;;8.20;1.88;;;22.50;85.40;;;;;;4937843;28;20040;-78
2021/08/08 11:39:58;;;;;;;8.50;1.77;;;22.60;86.00;;;;;;4920994;29;20045;-78
2021/08/08 11:42:33;;;;;;;7.30;2.08;;;22.60;85.90;;;;;;4931194;29;20050;-77
2021/08/08 11:44:59;;;;;;;5.80;1.80;;;22.60;85.80;;;;;;4946274;28;20110;-78
2021/08/08 11:47:27;;;;;;;6.28;2.22;;;22.60;85.80;;;;;;4931915;29;20126;-77
2021/08/08 11:49:54;;;;;;;4.47;1.35;;;22.60;85.40;;;;;;4917217;29;20507;-79
2021/08/08 11:52:21;;;;;;;5.72;1.85;;;22.60;85.40;;;;;;4930977;28;20059;-76
2021/08/08 11:55:08;;;;;;;9.05;1.95;;;22.60;85.10;;;;;;4934631;29;20031;-82
2021/08/08 11:57:35;;;;;;;7.32;2.17;;;22.60;85.40;;;;;;4942459;29;20044;-80
2021/08/08 12:00:02;;;;;;;10.35;1.80;;;22.50;84.70;;;;;;4939342;29;20024;-76
2021/08/08 12:02:29;;;;;;;4.25;1.98;;;22.50;85.20;;;;;;4937908;29;20091;-76
2021/08/08 12:04:56;;;;;;;4.88;1.85;;;22.50;85.40;;;;;;4930722;28;20024;-78
2021/08/08 12:07:28;;;;;;;9.57;2.05;;;22.50;85.40;;;;;;4929530;29;20503;-75
2021/08/08 12:09:54;;;;;;;7.38;2.10;;;22.50;85.80;;;;;;4930301;29;20031;-74
2021/08/08 12:12:20;;;;;;;9.43;2.00;;;22.60;86.00;;;;;;4934268;28;20044;-78
2021/08/08 12:14:55;;;;;;;8.77;2.35;;;22.60;86.10;;;;;;4929959;29;20532;-75
2021/08/08 12:17:22;;;;;;;8.43;1.95;;;22.60;86.10;;;;;;4930785;29;20023;-76
2021/08/08 12:19:50;;;;;;;7.80;2.22;;;22.70;86.20;;;;;;4929225;29;20114;-76
2021/08/08 12:22:18;;;;;;;4.72;2.00;;;22.60;86.10;;;;;;4930048;29;20126;-78
2021/08/08 12:24:49;;;;;;;7.05;2.22;;;22.60;86.20;;;;;;4930615;28;20019;-77
2021/08/08 12:27:17;;;;;;;6.22;1.85;;;22.70;86.30;;;;;;4930361;29;20093;-75
2021/08/08 12:29:45;;;;;;;5.47;2.10;;;22.60;86.20;;;;;;4930502;29;20544;-78
2021/08/08 12:32:14;;;;;;;5.85;2.10;;;22.60;86.20;;;;;;4930575;29;20027;-74
2021/08/08 12:34:44;;;;;;;4.07;1.63;;;22.60;86.20;;;;;;4932298;28;20081;-76
2021/08/08 12:37:14;;;;;;;5.88;1.80;;;22.50;86.20;;;;;;4930493;29;20020;-75
2021/08/08 12:39:42;;;;;;;8.20;2.13;;;22.50;86.40;;;;;;4930329;29;20020;-76
2021/08/08 12:42:23;;;;;;;8.73;2.35;;;22.50;86.40;;;;;;4926299;29;20034;-76
2021/08/08 12:44:59;;;;;;;5.35;1.40;;;22.50;86.40;;;;;;4929044;29;20434;-78